LiveATC.Net - Listen to live air traffic control over the Internet!


ICAO: PGUM  IATA: GUM   Airport: Guam International Airport
City: Agana   State/Province: Guam
Country: United States   Continent: Oceania
PGUM METAR Weather: PGUM 241354Z 05005KT 7SM CLR 27/26 A2990 RMK AO2 SLP117 T02720261 403220267
PGUM Flight Activity (FlightAware)
PGUM Airport Info   (AirNav) (iFlightPlanner)
PGUM VFR Sectional Chart   (iFlightPlanner) 
PGUM IFR Low Chart   (iFlightPlanner) 

PGUM Tower
Feed Status: UP   Listeners: 0
Listen right in your browser - requires Flash (in browser, requires Flash)
Click here to listen with your own player (launches your MP3 player)
PGUM Tower Audio Archives
FacilityFrequency
Agana Tower118.100

NOTICE

Unauthorized use prohibited. See LiveATC.net Terms of Service


Find LiveATC Audio Streams


Airport/ARTCC Code

Frequency Search
(e.g., 124.400, 128.75)
Site-wide search
 


Browse LiveATC Feeds
LiveATC Coverage Map
Top 50 LiveATC Feeds
Bad Weather Areas

LiveATC FAQ
Offer a LiveATC Feed
Contact LiveATC.net
Press Inquiries

LiveATC on iPhone
LiveATC on Android

Windows Phone
Windows 8/10

LiveATC Mobile
(Mobile browser)

ATC Audio Archives
Interesting Recordings

LiveATC Forums


Home Page
About LiveATC.net
Make a Donation
Terms of Use
Privacy Policy

Canadian Air Freqs

AIRMETs/SIGMETs

FAA Airport Status
Nat'l Airspace Status
Arrival Demand Charts


Server Software By:
Icecast.org
Liquidsoap